Time;durP1;ratioP1;P1;durP2;ratioP2;P2;SDS_P1;SDS_P2;PMS_P1;PMS_P2;Temp;Humidity;BMP_temperature;BMP_pressure;BME280_temperature;BME280_humidity;BME280_pressure;Samples;Min_cycle;Max_cycle;Signal;HPM_P1;HPM_P2
2022/09/21 00:03:58;;;;;;;1.17;0.50;;;10.60;99.90;;;8.73;83.41;100418.44;10304664;28;98371;-83
2022/09/21 00:09:03;;;;;;;1.43;0.60;;;10.60;99.90;;;8.70;83.15;100417.94;10276420;28;97074;-83
2022/09/21 00:14:12;;;;;;;1.37;0.80;;;10.50;99.90;;;8.67;83.03;100419.03;10287859;28;97381;-83
2022/09/21 00:19:15;;;;;;;1.57;0.70;;;10.50;99.90;;;8.58;82.93;100423.44;10284178;28;98056;-83
2022/09/21 00:24:18;;;;;;;1.37;1.00;;;10.50;99.90;;;8.48;83.07;100422.66;10281187;28;98013;-83
2022/09/21 00:29:21;;;;;;;1.13;0.70;;;10.40;99.90;;;8.36;82.99;100425.66;10287768;28;98090;-84
2022/09/21 00:34:23;;;;;;;1.23;0.80;;;10.30;99.90;;;8.27;83.51;100432.63;10284948;28;96687;-84
2022/09/21 00:39:27;;;;;;;0.70;0.43;;;10.20;99.90;;;8.19;83.59;100430.72;10269217;28;98254;-84
2022/09/21 00:44:32;;;;;;;0.60;0.50;;;10.10;99.90;;;8.11;83.42;100430.63;10279076;28;97447;-84
2022/09/21 00:49:35;;;;;;;1.60;0.87;;;10.00;99.90;;;8.00;83.60;100428.16;10298279;28;96629;-84
2022/09/21 00:54:54;;;;;;;1.70;0.80;;;9.90;99.90;;;7.89;83.67;100426.53;10288556;28;96760;-84
2022/09/21 01:00:01;;;;;;;1.63;0.90;;;9.80;99.90;;;7.83;83.90;100435.03;10283304;28;97251;-84
2022/09/21 01:05:08;;;;;;;1.43;1.00;;;9.70;99.90;;;7.73;83.85;100429.78;10293748;28;96678;-84
2022/09/21 01:10:16;;;;;;;1.87;1.00;;;9.60;99.90;;;7.68;84.08;100436.50;10295628;28;97447;-84
2022/09/21 01:15:37;;;;;;;1.37;0.80;;;9.50;99.90;;;7.55;84.03;100433.31;10289998;28;98708;-84
2022/09/21 01:21:19;;;;;;;2.30;1.20;;;9.40;99.90;;;7.44;84.14;100429.88;10300131;28;97264;-83
2022/09/21 01:26:48;;;;;;;2.93;1.20;;;9.30;99.90;;;7.37;84.42;100441.97;10277230;28;97516;-88
2022/09/21 01:32:14;;;;;;;2.70;1.20;;;9.20;99.90;;;7.30;84.65;100442.69;10258791;28;97096;-84
2022/09/21 01:37:24;;;;;;;2.37;1.20;;;9.20;99.90;;;7.22;84.70;100452.16;10267400;28;97197;-84
2022/09/21 01:42:29;;;;;;;3.63;1.30;;;9.10;99.90;;;7.16;84.95;100451.88;10312484;28;98547;-84
2022/09/21 01:47:36;;;;;;;1.77;1.20;;;9.00;99.90;;;7.18;85.35;100452.56;10285477;28;98108;-83
2022/09/21 01:52:51;;;;;;;2.43;1.10;;;9.00;99.90;;;7.24;85.64;100458.13;10309903;28;97301;-84
2022/09/21 01:58:10;;;;;;;1.60;1.00;;;9.10;99.90;;;7.30;86.09;100458.53;10296661;28;96559;-84
2022/09/21 02:03:35;;;;;;;3.30;1.30;;;9.20;99.90;;;7.39;86.19;100447.13;10271815;28;98143;-84
2022/09/21 02:08:38;;;;;;;1.93;1.00;;;9.20;99.90;;;7.52;86.34;100458.25;10310821;28;96553;-84
2022/09/21 02:13:47;;;;;;;3.37;1.30;;;9.40;99.90;;;7.61;86.75;100456.53;10311880;28;96522;-83
2022/09/21 02:19:28;;;;;;;2.00;1.20;;;9.50;99.90;;;7.71;86.95;100447.59;10285110;28;96687;-84
2022/09/21 02:24:56;;;;;;;3.03;1.70;;;9.60;99.90;;;7.82;86.97;100448.44;10296935;28;96798;-84
2022/09/21 02:30:13;;;;;;;2.13;1.20;;;9.70;99.90;;;7.94;87.04;100453.41;10292959;28;96662;-84
2022/09/21 02:35:38;;;;;;;2.27;0.80;;;9.80;99.90;;;7.97;86.70;100460.19;10295283;28;97430;-84
2022/09/21 02:41:19;;;;;;;1.67;1.10;;;9.80;99.90;;;7.91;86.42;100461.59;10295431;28;99880;-84
2022/09/21 02:46:31;;;;;;;2.17;1.23;;;9.80;99.90;;;7.90;86.43;100467.06;10232969;28;96681;-85
2022/09/21 02:51:58;;;;;;;2.27;1.30;;;9.80;99.90;;;7.91;86.47;100468.72;10254224;28;96609;-83
2022/09/21 02:57:01;;;;;;;2.63;1.27;;;9.80;99.90;;;7.86;86.46;100471.81;10253634;28;96512;-84
2022/09/21 03:02:05;;;;;;;1.70;1.10;;;9.70;99.90;;;7.81;86.32;100468.75;10237384;28;98040;-84
2022/09/21 03:07:08;;;;;;;1.33;1.07;;;9.70;99.90;;;7.74;86.24;100470.31;10221007;28;97242;-84
2022/09/21 03:12:11;;;;;;;1.70;1.20;;;9.60;99.90;;;7.66;86.20;100486.88;10234482;28;98133;-84
2022/09/21 03:17:14;;;;;;;1.90;1.13;;;9.50;99.90;;;7.63;86.38;100492.47;10251266;28;98781;-84
2022/09/21 03:22:20;;;;;;;1.93;1.30;;;9.50;99.90;;;7.65;86.63;100490.50;10251942;28;97189;-84
2022/09/21 03:27:23;;;;;;;3.43;1.10;;;9.50;99.90;;;7.61;86.44;100489.09;10273168;28;96661;-84
2022/09/21 03:32:25;;;;;;;2.30;1.27;;;9.50;99.90;;;7.56;86.31;100491.38;10253169;28;97853;-84
2022/09/21 03:37:29;;;;;;;1.77;1.00;;;9.40;99.90;;;7.49;86.51;100491.06;10249517;28;98215;-84
2022/09/21 03:42:33;;;;;;;3.20;1.37;;;9.30;99.90;;;7.44;86.60;100492.50;10281498;28;96498;-85
2022/09/21 03:47:37;;;;;;;2.07;1.40;;;9.30;99.90;;;7.39;86.67;100492.91;10291872;28;96574;-85
2022/09/21 03:52:40;;;;;;;2.27;1.40;;;9.20;99.90;;;7.42;86.92;100505.84;10291685;28;96711;-85
2022/09/21 03:57:43;;;;;;;2.40;1.20;;;9.30;99.90;;;7.39;87.04;100494.72;10291381;28;96613;-85
2022/09/21 04:02:46;;;;;;;2.17;1.10;;;9.30;99.90;;;7.39;87.17;100497.38;10291021;28;98162;-85
2022/09/21 04:07:49;;;;;;;1.63;1.20;;;9.30;99.90;;;7.34;87.40;100507.53;10304411;28;98141;-86
2022/09/21 04:12:56;;;;;;;4.00;1.40;;;9.20;99.90;;;7.30;87.35;100511.41;10294140;28;97922;-85
2022/09/21 04:18:00;;;;;;;2.43;1.43;;;9.20;99.90;;;7.29;87.90;100509.75;10275792;28;96639;-88
2022/09/21 04:23:03;;;;;;;2.30;1.40;;;9.20;99.90;;;7.32;88.48;100520.06;10285178;28;98018;-88
2022/09/21 04:28:06;;;;;;;2.33;1.50;;;9.10;99.90;;;7.34;88.72;100510.16;10288494;28;98200;-87
2022/09/21 04:33:09;;;;;;;2.73;1.30;;;9.20;99.90;;;7.39;89.15;100515.88;10287300;28;98463;-88
2022/09/21 04:38:12;;;;;;;3.30;1.80;;;9.20;99.90;;;7.44;89.10;100524.22;10271740;28;96640;-88
2022/09/21 04:43:15;;;;;;;2.17;1.43;;;9.30;99.90;;;7.48;89.22;100526.44;10288185;28;96640;-87
2022/09/21 04:48:24;;;;;;;2.50;1.30;;;9.30;99.90;;;7.53;89.23;100533.13;10289465;28;96849;-87
2022/09/21 04:53:27;;;;;;;1.63;1.20;;;9.40;99.90;;;7.56;89.44;100528.41;10289723;28;96511;-84
2022/09/21 04:58:31;;;;;;;1.90;1.20;;;9.40;99.90;;;7.62;89.53;100538.41;10268235;28;96652;-84
2022/09/21 05:03:34;;;;;;;2.50;1.60;;;9.50;99.90;;;7.71;89.64;100544.66;10284768;28;96756;-83
2022/09/21 05:13:59;;;;;;;3.30;1.35;;;9.70;99.90;;;7.78;89.84;100538.66;10286042;28;97383;-84
2022/09/21 05:19:02;;;;;;;4.67;1.53;;;9.70;99.90;;;7.78;89.95;100525.41;10288566;28;97314;-84
2022/09/21 05:24:06;;;;;;;2.67;1.67;;;9.60;99.90;;;7.86;90.11;100529.19;10297733;28;96575;-84
2022/09/21 05:29:09;;;;;;;3.83;1.70;;;9.70;99.90;;;7.98;90.21;100536.81;10250769;28;96749;-84
2022/09/21 05:34:42;;;;;;;2.63;1.40;;;9.80;99.90;;;8.16;90.55;100549.31;10291547;28;97333;-84
2022/09/21 05:39:46;;;;;;;2.70;1.50;;;10.00;99.90;;;8.26;90.52;100542.16;10310028;28;96442;-84
2022/09/21 05:44:49;;;;;;;2.33;1.20;;;10.20;99.90;;;8.41;90.34;100539.94;10286457;28;97507;-84
2022/09/21 05:50:12;;;;;;;4.63;1.77;;;10.30;99.90;;;8.45;90.30;100551.88;10286907;28;98096;-84
2022/09/21 05:55:51;;;;;;;6.93;3.53;;;10.30;99.90;;;8.48;89.78;100559.56;10286126;28;96842;-84
2022/09/21 06:01:38;;;;;;;7.03;3.47;;;10.30;99.90;;;8.51;90.00;100556.59;10278424;28;97268;-84
2022/09/21 06:06:41;;;;;;;3.77;2.00;;;10.40;99.90;;;8.63;89.93;100555.41;10273453;28;98200;-84
2022/09/21 06:11:43;;;;;;;3.90;1.60;;;10.40;99.90;;;8.78;89.68;100556.63;10291377;28;96713;-84
2022/09/21 06:16:46;;;;;;;8.13;3.33;;;10.60;99.90;;;9.01;89.41;100554.41;10292005;28;97984;-88
2022/09/21 06:21:49;;;;;;;4.50;2.50;;;10.80;99.90;;;9.26;88.96;100559.97;10294980;28;96717;-87
2022/09/21 06:26:52;;;;;;;3.30;2.07;;;11.10;99.90;;;9.52;88.24;100562.69;10291797;28;96604;-84
2022/09/21 06:31:55;;;;;;;1.93;1.20;;;11.30;99.90;;;9.76;87.41;100562.06;10325796;28;96669;-84
2022/09/21 06:36:57;;;;;;;2.40;1.33;;;11.60;99.90;;;10.00;86.36;100566.72;10294107;28;96564;-85
2022/09/21 06:42:00;;;;;;;2.30;1.23;;;11.80;99.90;;;10.25;85.27;100570.41;10284712;28;97437;-83
2022/09/21 06:47:03;;;;;;;2.27;1.40;;;12.00;99.90;;;10.48;84.01;100565.38;10275657;28;96758;-81
2022/09/21 06:52:06;;;;;;;2.83;1.37;;;12.20;99.90;;;10.64;83.56;100557.50;10267838;28;96537;-84
2022/09/21 06:57:09;;;;;;;1.93;1.20;;;12.40;99.90;;;10.87;83.01;100561.25;10278569;28;96738;-83
2022/09/21 07:02:12;;;;;;;1.10;0.80;;;12.60;99.90;;;11.13;80.99;100557.66;10303570;28;98312;-84
2022/09/21 07:07:15;;;;;;;1.00;0.90;;;12.90;99.90;;;11.39;78.96;100568.19;10325365;28;96606;-82
2022/09/21 07:12:18;;;;;;;2.13;1.23;;;13.10;99.90;;;11.52;77.44;100576.53;10276871;28;96664;-86
2022/09/21 07:17:21;;;;;;;2.97;1.70;;;13.20;99.90;;;11.64;77.00;100563.75;10285318;28;96723;-85
2022/09/21 07:22:23;;;;;;;1.83;1.20;;;13.40;99.90;;;11.84;76.40;100565.09;10288965;28;96637;-84
2022/09/21 07:27:30;;;;;;;2.13;1.50;;;13.50;99.90;;;12.12;75.56;100564.75;10285613;28;96950;-88
2022/09/21 07:32:33;;;;;;;2.37;1.47;;;13.80;99.90;;;12.38;74.05;100562.69;10302750;28;96701;-88
2022/09/21 07:37:36;;;;;;;1.80;1.15;;;14.10;99.90;;;12.67;73.47;100566.59;10273210;28;97382;-89
2022/09/21 07:42:39;;;;;;;1.95;1.00;;;14.30;99.90;;;12.91;72.00;100557.66;10310154;28;96745;-87
2022/09/21 07:47:42;;;;;;;2.10;1.00;;;14.50;99.90;;;13.24;70.68;100569.81;10308885;28;96600;-87
2022/09/21 07:52:45;;;;;;;1.75;0.88;;;14.80;99.70;;;13.54;68.77;100568.13;10293342;28;96893;-88
2022/09/21 08:03:11;;;;;;;1.35;0.90;;;15.20;97.80;;;13.87;66.27;100567.88;10309312;28;96670;-87
2022/09/21 08:08:15;;;;;;;1.00;0.70;;;15.50;97.00;;;14.07;64.94;100557.50;10305436;28;98507;-87
2022/09/21 08:13:18;;;;;;;2.15;1.00;;;15.70;97.20;;;14.18;63.85;100568.59;10263403;28;96594;-87
2022/09/21 08:18:22;;;;;;;2.30;1.00;;;15.90;96.40;;;14.31;63.58;100572.47;10284547;28;98661;-87
2022/09/21 08:23:27;;;;;;;1.30;0.80;;;16.00;95.70;;;14.62;63.84;100581.19;10301555;28;96643;-86
2022/09/21 08:28:32;;;;;;;1.60;0.88;;;16.30;96.40;;;14.92;62.20;100575.81;10292623;28;96816;-87
2022/09/21 08:33:35;;;;;;;0.82;0.50;;;16.70;95.90;;;15.20;60.11;100578.63;10292223;28;96442;-87
2022/09/21 08:38:40;;;;;;;0.40;0.40;;;16.90;94.40;;;15.39;58.91;100569.13;10316900;28;97257;-86
2022/09/21 08:43:49;;;;;;;1.23;0.80;;;17.10;94.30;;;15.54;57.60;100572.59;10291468;28;96716;-86
2022/09/21 08:49:30;;;;;;;1.23;0.80;;;17.30;92.70;;;15.64;55.89;100570.44;10307979;28;97485;-86
2022/09/21 08:55:01;;;;;;;1.48;0.60;;;17.30;89.70;;;15.57;55.46;100569.53;10298477;28;96802;-87
2022/09/21 09:00:14;;;;;;;0.95;0.60;;;17.30;90.80;;;15.41;55.79;100573.31;10295741;28;96608;-86
2022/09/21 09:05:41;;;;;;;1.17;0.73;;;17.10;90.60;;;15.38;56.31;100572.84;10293473;28;97511;-88
2022/09/21 09:11:19;;;;;;;1.42;0.77;;;17.10;89.00;;;15.35;56.57;100578.56;10285390;28;96583;-87
2022/09/21 09:16:33;;;;;;;1.70;0.75;;;17.00;88.40;;;15.33;57.58;100578.75;10304905;28;97556;-90
2022/09/21 09:21:42;;;;;;;1.13;0.80;;;16.90;90.30;;;15.40;56.80;100581.50;10275762;28;98179;-86
2022/09/21 09:26:50;;;;;;;0.98;0.80;;;17.00;88.40;;;15.69;57.03;100573.38;10285437;28;97407;-86
2022/09/21 09:31:58;;;;;;;0.73;0.57;;;17.20;90.50;;;16.43;56.02;100574.78;10302698;28;98596;-88
2022/09/21 09:37:15;;;;;;;0.80;0.68;;;17.50;90.10;;;16.70;53.46;100563.22;10289262;28;97422;-88
2022/09/21 09:42:45;;;;;;;1.13;0.93;;;17.60;86.40;;;16.53;53.77;100567.22;10295731;28;98011;-87
2022/09/21 09:48:25;;;;;;;1.13;0.57;;;17.60;85.90;;;16.41;53.17;100564.25;10312401;28;98089;-86
2022/09/21 09:53:29;;;;;;;0.95;0.70;;;17.60;82.80;;;16.34;52.66;100552.66;10277052;28;96673;-87
2022/09/21 09:58:51;;;;;;;0.80;0.50;;;17.70;84.80;;;16.48;53.33;100559.75;10296626;28;96766;-87
2022/09/21 10:04:16;;;;;;;1.27;0.68;;;17.90;84.80;;;16.62;53.53;100552.63;10311610;28;96571;-85
2022/09/21 10:09:22;;;;;;;0.98;0.65;;;18.10;83.20;;;16.73;53.21;100549.41;10296284;28;96612;-86
2022/09/21 10:14:30;;;;;;;0.90;0.60;;;18.40;83.40;;;16.69;52.40;100548.09;10291098;28;98350;-85
2022/09/21 10:19:33;;;;;;;0.93;0.65;;;18.40;81.90;;;16.71;52.26;100545.25;10292048;28;96752;-88
2022/09/21 10:24:39;;;;;;;0.77;0.55;;;18.30;80.90;;;16.99;52.12;100527.19;10314647;28;98335;-85
2022/09/21 10:29:45;;;;;;;0.70;0.50;;;18.50;82.90;;;17.15;52.06;100544.78;10289441;28;96673;-85
2022/09/21 10:35:03;;;;;;;0.80;0.50;;;18.70;81.80;;;17.27;50.49;100526.22;10313330;28;96595;-84
2022/09/21 10:40:19;;;;;;;0.68;0.52;;;18.90;77.10;;;17.17;50.83;100540.06;10321653;28;96593;-85
2022/09/21 10:45:29;;;;;;;0.77;0.45;;;18.80;76.10;;;17.09;50.51;100540.22;10290329;28;97826;-85
2022/09/21 10:50:38;;;;;;;0.95;0.60;;;18.70;78.50;;;17.35;50.37;100531.41;10290386;28;97007;-85
2022/09/21 10:55:57;;;;;;;0.63;0.35;;;19.20;77.40;;;17.74;48.68;100527.97;10280968;28;96887;-86
2022/09/21 11:01:24;;;;;;;0.93;0.38;;;19.80;77.70;;;18.15;47.60;100526.91;10289544;28;97367;-84
2022/09/21 11:06:41;;;;;;;0.82;0.40;;;20.30;74.20;;;18.22;46.51;100526.88;10270394;28;97060;-87
2022/09/21 11:12:16;;;;;;;0.88;0.57;;;20.20;72.30;;;18.90;45.88;100509.31;10323911;28;96650;-86
2022/09/21 11:17:47;;;;;;;0.55;0.30;;;20.80;68.40;;;19.54;44.75;100510.13;10285765;28;96694;-84
2022/09/21 11:23:27;;;;;;;0.22;0.20;;;21.30;70.50;;;20.21;42.40;100505.84;10286871;28;99063;-86
2022/09/21 11:28:55;;;;;;;0.45;0.40;;;21.90;65.00;;;20.70;41.01;100492.44;10321552;28;98366;-86
2022/09/21 11:34:26;;;;;;;0.50;0.20;;;22.30;65.90;;;21.02;40.33;100480.38;10286679;28;96574;-85
2022/09/21 11:39:52;;;;;;;0.38;0.30;;;22.50;63.90;;;20.71;40.07;100483.28;10293712;28;96473;-85
2022/09/21 11:45:34;;;;;;;0.45;0.20;;;22.00;61.80;;;20.57;39.90;100469.97;10291654;28;96653;-83
2022/09/21 11:51:26;;;;;;;1.35;0.40;;;21.80;62.40;;;20.23;40.19;100474.06;10289221;28;96531;-85
2022/09/21 11:56:41;;;;;;;0.47;0.30;;;21.40;61.30;;;19.69;40.48;100461.34;10306973;28;96633;-86
2022/09/21 12:02:10;;;;;;;0.60;0.30;;;21.00;61.40;;;19.34;42.24;100459.09;10280229;28;96623;-84
2022/09/21 12:07:44;;;;;;;0.60;0.40;;;20.50;62.90;;;19.57;40.93;100450.41;10285492;28;96727;-85
2022/09/21 12:13:01;;;;;;;0.50;0.25;;;20.70;60.80;;;19.52;41.75;100448.38;10268424;28;97552;-84
2022/09/21 12:18:40;;;;;;;0.82;0.60;;;20.70;62.40;;;19.01;42.29;100455.78;10301451;28;96631;-86
2022/09/21 12:23:56;;;;;;;0.70;0.40;;;20.40;63.20;;;18.39;43.65;100458.97;10286821;28;98196;-86
2022/09/21 12:29:17;;;;;;;0.32;0.30;;;19.70;64.60;;;18.05;45.56;100459.25;10300158;28;97392;-87
2022/09/21 12:34:26;;;;;;;1.33;0.47;;;19.40;66.60;;;17.66;46.60;100463.66;10281070;28;97385;-85
2022/09/21 12:40:09;;;;;;;0.45;0.40;;;19.00;68.00;;;17.43;47.50;100471.28;10314093;28;96593;-86
2022/09/21 12:45:36;;;;;;;0.70;0.45;;;18.80;68.60;;;17.14;47.40;100465.25;10285736;28;96616;-83
2022/09/21 12:50:47;;;;;;;0.70;0.50;;;18.60;68.40;;;17.03;47.72;100457.81;10288223;28;96794;-84
2022/09/21 12:56:10;;;;;;;0.60;0.40;;;18.40;68.70;;;17.09;48.48;100463.22;10282336;28;98213;-85
2022/09/21 13:02:11;;;;;;;0.60;0.45;;;18.50;70.00;;;17.01;48.40;100449.97;10321743;28;96640;-87
2022/09/21 13:08:03;;;;;;;0.63;0.30;;;18.60;69.60;;;16.95;48.45;100447.25;10276804;28;98584;-85
2022/09/21 13:13:26;;;;;;;0.68;0.30;;;18.40;68.70;;;16.91;47.80;100437.94;10278810;28;97531;-83
2022/09/21 13:18:40;;;;;;;0.65;0.47;;;18.40;68.60;;;16.98;48.71;100428.09;10290006;28;96727;-84
2022/09/21 13:23:54;;;;;;;0.52;0.30;;;18.40;69.70;;;17.05;48.27;100428.91;10290364;28;97080;-83
2022/09/21 13:28:57;;;;;;;1.05;0.30;;;18.50;68.80;;;16.95;48.10;100433.84;10303820;28;96765;-84
2022/09/21 13:34:28;;;;;;;6.25;4.75;;;18.50;68.50;;;16.74;47.43;100435.66;10294701;28;96838;-83
2022/09/21 13:39:31;;;;;;;18.55;6.47;;;18.30;67.70;;;16.58;46.77;100433.31;10281117;28;98147;-83
2022/09/21 13:44:42;;;;;;;8.35;4.03;;;18.20;67.10;;;16.49;46.53;100434.50;10310001;28;97137;-84
2022/09/21 13:49:50;;;;;;;2.42;0.88;;;18.00;66.60;;;16.37;46.30;100430.72;10313385;28;96691;-85
2022/09/21 13:55:14;;;;;;;1.13;0.70;;;17.90;65.90;;;16.45;47.10;100430.56;10303075;28;96460;-84
2022/09/21 14:00:18;;;;;;;0.32;0.30;;;17.90;66.90;;;16.52;46.55;100424.19;10294308;28;96641;-85
2022/09/21 14:05:47;;;;;;;2.90;1.58;;;18.00;66.60;;;16.62;46.59;100429.19;10282199;28;96636;-87
2022/09/21 14:11:22;;;;;;;0.95;0.50;;;18.00;66.70;;;16.73;47.09;100412.53;10291431;28;96653;-86
2022/09/21 14:16:28;;;;;;;6.05;2.42;;;18.20;67.20;;;16.85;46.85;100423.47;10289553;28;96657;-89
2022/09/21 14:21:31;;;;;;;2.03;1.27;;;18.30;67.10;;;16.89;45.64;100422.06;10293380;28;96767;-87
2022/09/21 14:26:49;;;;;;;2.22;0.55;;;18.40;63.30;;;16.96;45.30;100408.66;10290014;28;98004;-84
2022/09/21 14:31:58;;;;;;;0.90;0.40;;;18.40;65.50;;;17.04;45.58;100406.59;10308023;28;97919;-83
2022/09/21 14:37:12;;;;;;;0.60;0.50;;;18.50;65.10;;;17.10;46.25;100415.69;10297032;28;97262;-83
2022/09/21 14:42:26;;;;;;;1.02;0.52;;;18.60;65.90;;;16.99;46.02;100414.44;10308872;28;98229;-86
2022/09/21 14:47:56;;;;;;;2.92;0.93;;;18.50;65.80;;;16.71;47.12;100417.28;10311164;28;96608;-88
2022/09/21 14:53:14;;;;;;;12.95;3.97;;;18.30;66.70;;;16.51;47.50;100416.38;10321983;28;96493;-86
2022/09/21 14:59:06;;;;;;;7.60;3.10;;;18.00;67.50;;;16.53;48.42;100422.34;10295673;28;96699;-87
2022/09/21 15:04:48;;;;;;;;;;;18.00;69.00;;;16.79;47.74;100426.97;10314483;28;96473;-87
2022/09/21 15:16:39;;;;;;;0.80;0.40;;;18.60;66.00;;;17.63;44.98;100431.78;10295730;28;96498;-88
2022/09/21 15:21:46;;;;;;;0.80;0.40;;;18.90;65.10;;;17.84;44.29;100420.84;10283001;28;97165;-86
2022/09/21 15:26:51;;;;;;;0.93;0.50;;;19.10;63.90;;;17.84;43.50;100428.09;10290000;28;96655;-87
2022/09/21 15:31:54;;;;;;;0.80;0.47;;;19.10;63.60;;;17.99;43.43;100425.97;10278412;28;97179;-87
2022/09/21 15:37:16;;;;;;;0.28;0.28;;;19.40;62.60;;;17.92;41.60;100435.94;10277324;28;98107;-89
2022/09/21 15:42:21;;;;;;;0.73;0.47;;;19.40;59.80;;;17.51;41.15;100446.88;10235070;28;96537;-92
2022/09/21 15:47:26;;;;;;;1.75;0.68;;;19.20;59.70;;;17.18;42.42;100436.97;10284844;28;97470;-90
2022/09/21 15:52:41;;;;;;;1.45;0.40;;;18.80;61.10;;;16.87;42.97;100450.97;10292254;28;96553;-93
2022/09/21 15:57:45;;;;;;;1.27;0.90;;;18.50;61.90;;;16.55;44.36;100455.16;10253528;28;96590;-94
2022/09/21 16:03:03;;;;;;;1.35;0.70;;;18.20;63.50;;;16.15;45.29;100463.03;10253288;28;96526;-92
2022/09/21 16:08:25;;;;;;;0.85;0.65;;;17.70;64.10;;;15.72;46.35;100465.84;10291094;28;96705;-91
2022/09/21 16:18:58;;;;;;;1.05;0.82;;;17.10;66.40;;;15.21;48.44;100471.34;10294117;28;96728;-90
2022/09/21 16:24:17;;;;;;;1.63;1.33;;;16.80;67.40;;;15.04;49.40;100491.34;10283158;28;96657;-90
2022/09/21 16:29:28;;;;;;;2.47;0.82;;;16.60;68.40;;;14.86;50.27;100488.25;10294035;28;96813;-92
2022/09/21 16:34:34;;;;;;;2.03;0.82;;;16.50;68.80;;;14.63;51.23;100502.63;10296539;28;96464;-90
2022/09/21 16:39:36;;;;;;;2.03;1.00;;;16.30;69.70;;;14.35;52.23;100498.91;10288078;28;96636;-92
2022/09/21 16:44:43;;;;;;;3.17;1.60;;;16.10;71.60;;;14.17;53.06;100513.47;10307442;28;96464;-92
2022/09/21 16:49:50;;;;;;;2.63;1.25;;;15.80;72.10;;;13.96;53.81;100516.03;10262831;28;96700;-90
2022/09/21 16:54:55;;;;;;;13.00;6.13;;;15.70;73.00;;;13.79;54.67;100519.84;10306709;28;96512;-92
2022/09/21 16:59:58;;;;;;;4.05;2.63;;;15.50;73.30;;;13.61;55.28;100513.03;10307623;28;96473;-90
2022/09/21 17:05:01;;;;;;;4.32;1.98;;;15.30;74.10;;;13.42;56.00;100510.81;10306578;28;96573;-89
2022/09/21 17:10:13;;;;;;;2.42;1.50;;;15.20;75.10;;;13.29;56.43;100521.28;10261702;28;96456;-90
2022/09/21 17:15:16;;;;;;;1.80;1.30;;;15.00;76.10;;;13.16;57.05;100523.66;10284575;28;96456;-90
2022/09/21 17:20:44;;;;;;;1.43;0.80;;;14.80;76.10;;;13.00;57.49;100521.91;10287614;28;96847;-93
2022/09/21 17:25:46;;;;;;;2.28;1.00;;;14.70;76.60;;;12.90;57.84;100532.81;10291363;28;96422;-91
2022/09/21 17:30:50;;;;;;;1.93;1.13;;;14.60;77.40;;;12.73;58.38;100532.06;10290584;28;96467;-91
2022/09/21 17:35:55;;;;;;;2.37;1.40;;;14.50;78.10;;;12.59;58.83;100546.09;10305414;28;98516;-92
2022/09/21 17:40:59;;;;;;;2.07;1.13;;;14.30;78.20;;;12.48;59.61;100552.66;10291352;28;96790;-89
2022/09/21 17:46:22;;;;;;;2.20;0.90;;;14.20;78.60;;;12.38;60.23;100565.34;10290279;28;97561;-90
2022/09/21 17:57:13;;;;;;;3.23;1.33;;;14.00;79.90;;;12.18;61.24;100566.72;10268718;28;96756;-95
2022/09/21 18:02:24;;;;;;;3.10;1.70;;;13.90;80.60;;;12.10;61.63;100570.22;10272783;28;97367;-94
2022/09/21 18:07:28;;;;;;;3.23;1.50;;;13.80;81.00;;;12.00;62.33;100572.25;10295404;28;96670;-92
2022/09/21 18:12:53;;;;;;;2.83;1.40;;;13.70;82.00;;;12.03;62.92;100578.06;10304783;28;96556;-91
2022/09/21 18:18:17;;;;;;;1.53;1.07;;;13.70;82.70;;;12.04;63.23;100582.38;10299384;28;97564;-93
2022/09/21 18:23:50;;;;;;;2.93;1.43;;;13.70;83.30;;;11.97;63.51;100586.72;10295377;28;96703;-93
2022/09/21 18:28:57;;;;;;;3.63;1.87;;;13.70;83.50;;;11.85;63.76;100581.91;10270272;28;96725;-92
2022/09/21 18:34:28;;;;;;;9.17;5.20;;;13.60;83.80;;;11.76;64.40;100581.06;10316295;28;96693;-95
2022/09/21 18:40:23;;;;;;;6.40;5.13;;;13.50;84.40;;;11.64;65.12;100593.84;10303969;28;97185;-94
2022/09/21 18:45:39;;;;;;;3.77;1.63;;;13.40;85.00;;;11.53;65.59;100595.00;10230088;28;98654;-92
2022/09/21 18:50:50;;;;;;;2.57;1.30;;;13.30;85.30;;;11.46;66.26;100601.16;10292284;28;97364;-94
2022/09/21 18:55:53;;;;;;;;;;;13.20;85.90;;;11.39;66.83;100600.94;10290822;28;97800;-95
2022/09/21 19:00:59;;;;;;;2.43;1.40;;;13.10;87.30;;;11.30;67.19;100601.94;10265262;28;96697;-93
2022/09/21 19:06:25;;;;;;;2.60;1.33;;;13.10;87.00;;;11.28;67.67;100601.28;10274225;28;97264;-92
2022/09/21 19:11:56;;;;;;;4.40;1.00;;;13.00;87.50;;;11.26;67.97;100608.56;10290441;28;98094;-92
2022/09/21 19:17:30;;;;;;;1.33;0.77;;;13.00;87.50;;;11.23;68.08;100600.94;10312788;28;96675;-91
2022/09/21 19:23:03;;;;;;;1.70;0.80;;;13.00;88.20;;;11.22;68.25;100609.91;10313611;28;96743;-93
2022/09/21 19:28:51;;;;;;;1.47;0.73;;;13.00;88.10;;;11.14;68.38;100607.19;10265336;28;96781;-94
2022/09/21 19:33:54;;;;;;;2.30;0.67;;;12.90;88.00;;;11.07;68.55;100603.53;10200968;28;97714;-93
2022/09/21 19:38:57;;;;;;;1.80;0.80;;;12.90;88.30;;;10.99;69.11;100599.84;10294414;28;97365;-93
2022/09/21 19:44:49;;;;;;;1.43;0.60;;;12.80;88.50;;;10.92;69.18;100598.84;10261842;28;98907;-94
2022/09/21 19:49:56;;;;;;;1.23;0.60;;;12.70;88.70;;;10.85;69.09;100595.13;10267855;28;98310;-94
2022/09/21 20:00:22;;;;;;;1.70;1.00;;;12.60;89.30;;;10.72;69.49;100602.72;10307378;28;96661;-93
2022/09/21 20:05:28;;;;;;;1.93;1.07;;;12.50;90.30;;;10.69;69.99;100593.25;10283287;28;96812;-93
2022/09/21 20:10:43;;;;;;;2.23;1.00;;;12.50;90.10;;;10.67;70.10;100597.88;10309657;28;96827;-90
2022/09/21 20:16:07;;;;;;;2.30;1.47;;;12.40;90.10;;;10.62;69.84;100602.84;10289329;28;97403;-91
2022/09/21 20:21:18;;;;;;;1.07;0.73;;;12.40;90.10;;;10.56;70.04;100602.66;10267204;28;96935;-92
2022/09/21 20:26:25;;;;;;;0.83;0.57;;;12.40;90.10;;;10.52;69.95;100615.41;10283444;28;97010;-93
2022/09/21 20:31:28;;;;;;;1.50;0.77;;;12.30;90.20;;;10.50;70.24;100616.56;10284292;28;96717;-92
2022/09/21 20:36:31;;;;;;;1.43;0.60;;;12.30;90.30;;;10.46;70.29;100621.34;10285886;28;97354;-91
2022/09/21 20:41:36;;;;;;;1.50;0.70;;;12.30;90.40;;;10.44;70.03;100624.16;10326779;28;96753;-89
2022/09/21 20:46:39;;;;;;;1.23;0.80;;;12.20;90.40;;;10.35;70.31;100626.91;10296441;28;97331;-92
2022/09/21 20:51:42;;;;;;;1.27;0.73;;;12.20;90.50;;;10.30;70.46;100632.69;10293278;28;97442;-92
2022/09/21 20:56:45;;;;;;;1.10;0.70;;;12.20;90.60;;;10.31;70.44;100634.34;10265345;28;97792;-92
2022/09/21 21:01:48;;;;;;;1.60;0.80;;;12.10;90.70;;;10.28;70.39;100625.88;10266596;28;98116;-92
2022/09/21 21:06:51;;;;;;;1.57;0.83;;;12.10;90.80;;;10.27;70.40;100632.19;10306640;28;96558;-91
2022/09/21 21:11:55;;;;;;;1.57;0.90;;;12.10;90.90;;;10.23;70.11;100631.66;10273498;28;97150;-92
2022/09/21 21:16:57;;;;;;;2.17;0.70;;;12.00;90.80;;;10.26;70.11;100620.72;10310585;28;96657;-93
2022/09/21 21:22:00;;;;;;;3.10;1.00;;;12.00;90.90;;;10.23;70.28;100620.16;10288295;28;97226;-92
2022/09/21 21:27:03;;;;;;;1.83;1.20;;;12.00;91.00;;;10.07;70.23;100607.59;10291169;28;98127;-92
2022/09/21 21:32:07;;;;;;;1.57;0.80;;;11.90;91.30;;;10.04;70.11;100610.56;10289859;28;96763;-93
2022/09/21 21:37:12;;;;;;;1.80;1.10;;;11.80;91.50;;;10.10;70.01;100607.28;10277232;28;98746;-93
2022/09/21 21:42:15;;;;;;;1.57;0.80;;;11.80;91.30;;;10.05;70.26;100607.75;10293544;28;96669;-92
2022/09/21 21:47:19;;;;;;;2.73;1.10;;;11.80;91.30;;;9.98;70.14;100604.06;10300402;28;96783;-92
2022/09/21 21:52:43;;;;;;;1.77;1.00;;;11.80;91.30;;;9.99;70.15;100610.19;10295571;28;96643;-91
2022/09/21 21:57:46;;;;;;;2.67;1.30;;;11.80;91.30;;;9.95;70.12;100617.63;10282172;28;97089;-91
2022/09/21 22:02:49;;;;;;;2.77;1.30;;;11.80;91.30;;;9.91;70.38;100619.75;10277913;28;96625;-91
2022/09/21 22:07:52;;;;;;;2.60;1.13;;;11.70;91.30;;;9.81;70.60;100611.03;10279428;28;97438;-92
2022/09/21 22:12:56;;;;;;;1.83;1.10;;;11.70;91.40;;;9.73;70.28;100610.16;10285965;28;96709;-91